X  Sluiten METAR luchtvaart weer gegevens      EDVE Braunschweig-Wolfsburg Airport
Temperatuur
41°F Temperatuur
37°F Dauwpunt
87% Vochtigheid



Wind
6 MPH
10 KM/U
3 M/S
5 KTS



140°
ZO
Huidig weer

Helder Helder
Luchtdruk 1025.92 (hPa) - 30.3 (inHg)
Zicht 6.2 (mijl) - 10 (km)
Vliegveld
Vliegveld code EDVE

Locatie : Braunschweig-Wolfsburg Airport
Afstand: 35 (mi)

Metar:
EDVE 070550Z 14005KT CAVOK 05/03 Q1026

Tijd: 07-10-2022 07:50 CEST